createdAt,value
2022-11-12T00:02:43.314Z,35.72
2022-11-12T00:05:49.489Z,39.38
2022-11-12T00:08:54.144Z,40.53
2022-11-12T00:15:02.818Z,44.42
2022-11-12T00:18:07.691Z,39.38
2022-11-12T00:21:11.873Z,40.70
2022-11-12T00:24:16.269Z,41.13
2022-11-12T00:27:20.794Z,38.78
2022-11-12T00:30:25.305Z,41.53
2022-11-12T00:33:29.587Z,50.58
2022-11-12T00:36:34.037Z,47.60
2022-11-12T00:39:38.474Z,48.78
2022-11-12T00:42:42.971Z,49.92
2022-11-12T00:45:47.355Z,51.50
2022-11-12T00:48:51.546Z,49.08
2022-11-12T00:51:55.828Z,46.97
2022-11-12T00:55:00.467Z,45.60
2022-11-12T00:58:04.943Z,54.13
2022-11-12T01:01:13.077Z,53.50
2022-11-12T01:04:17.910Z,50.67
2022-11-12T01:07:22.145Z,45.75
2022-11-12T01:10:26.703Z,49.47
2022-11-12T01:13:31.330Z,51.85
2022-11-12T01:16:39.066Z,51.95
2022-11-12T01:19:43.807Z,50.15
2022-11-12T01:22:48.333Z,48.80
2022-11-12T01:25:52.861Z,55.63
2022-11-12T01:32:01.781Z,51.65
2022-11-12T01:35:06.838Z,47.65
2022-11-12T01:38:11.138Z,48.67
2022-11-12T01:41:21.215Z,49.00
2022-11-12T01:44:30.413Z,47.97
2022-11-12T01:47:35.976Z,49.85
2022-11-12T01:50:41.075Z,46.25
2022-11-12T01:53:49.688Z,49.25
2022-11-12T01:56:57.015Z,49.58
2022-11-12T02:00:08.651Z,54.85
2022-11-12T02:03:20.387Z,47.08
2022-11-12T02:06:25.410Z,49.22
2022-11-12T02:09:31.062Z,45.38
2022-11-12T02:12:54.417Z,45.55
2022-11-12T02:15:58.912Z,54.03
2022-11-12T02:19:04.390Z,50.90
2022-11-12T02:22:08.682Z,53.95
2022-11-12T02:28:18.680Z,46.28
2022-11-12T02:31:22.998Z,43.38
2022-11-12T02:34:27.504Z,46.05
2022-11-12T02:37:31.840Z,48.20
2022-11-12T02:40:36.607Z,48.67
2022-11-12T02:43:41.382Z,52.95
2022-11-12T02:46:45.602Z,54.05
2022-11-12T02:49:50.173Z,51.13
2022-11-12T02:52:55.582Z,51.83
2022-11-12T02:56:01.448Z,50.00
2022-11-12T02:59:06.011Z,51.80
2022-11-12T03:02:10.454Z,54.05
2022-11-12T03:05:15.090Z,54.08
2022-11-12T03:08:19.747Z,55.50
2022-11-12T03:11:24.442Z,59.60
2022-11-12T03:14:28.896Z,48.45
2022-11-12T03:20:39.050Z,48.67
2022-11-12T03:23:43.664Z,53.90
2022-11-12T03:26:48.025Z,53.40
2022-11-12T03:29:52.467Z,58.97
2022-11-12T03:32:56.976Z,59.13
2022-11-12T03:36:01.503Z,55.40
2022-11-12T03:39:06.075Z,56.35
2022-11-12T03:42:10.413Z,55.70
2022-11-12T03:45:16.158Z,55.90
2022-11-12T03:48:20.674Z,55.35
2022-11-12T03:51:24.720Z,48.72
2022-11-12T03:54:29.173Z,54.22
2022-11-12T03:57:34.363Z,44.92
2022-11-12T04:00:39.145Z,52.47
2022-11-12T04:03:43.325Z,54.10
2022-11-12T04:07:05.966Z,60.10
2022-11-12T04:10:10.187Z,47.58
2022-11-12T04:13:29.758Z,45.30
2022-11-12T04:16:52.795Z,51.53
2022-11-12T04:20:15.678Z,48.92
2022-11-12T04:23:19.795Z,47.83
2022-11-12T04:26:24.396Z,50.10
2022-11-12T04:29:46.919Z,42.55
2022-11-12T04:32:58.429Z,46.70
2022-11-12T04:36:02.910Z,43.65
2022-11-12T04:39:07.355Z,53.53
2022-11-12T04:42:30.304Z,46.97
2022-11-12T04:45:34.893Z,47.22
2022-11-12T04:48:39.402Z,44.50
2022-11-12T04:52:01.871Z,48.55
2022-11-12T04:55:07.198Z,43.33
2022-11-12T04:58:11.556Z,41.42
2022-11-12T05:01:15.924Z,40.65
2022-11-12T05:04:20.171Z,42.05
2022-11-12T05:07:24.571Z,46.95
2022-11-12T05:10:30.905Z,45.60
2022-11-12T05:13:35.249Z,48.85
2022-11-12T05:16:40.059Z,44.70
2022-11-12T05:19:44.735Z,43.08
2022-11-12T05:23:05.059Z,44.65
2022-11-12T05:26:10.585Z,53.00
2022-11-12T05:29:14.898Z,47.30
2022-11-12T05:32:19.281Z,53.55
2022-11-12T05:35:23.843Z,48.10
2022-11-12T05:38:28.477Z,54.03
2022-11-12T05:41:51.359Z,45.83
2022-11-12T05:48:02.179Z,55.67
2022-11-12T05:51:13.054Z,49.50
2022-11-12T05:54:31.094Z,53.40
2022-11-12T05:57:35.529Z,52.95
2022-11-12T06:00:40.354Z,53.63
2022-11-12T06:03:44.674Z,54.40
2022-11-12T06:06:48.833Z,56.53
2022-11-12T06:09:53.596Z,52.10
2022-11-12T06:12:58.513Z,50.88
2022-11-12T06:16:03.495Z,57.25
2022-11-12T06:19:07.949Z,57.58
2022-11-12T06:22:13.187Z,56.70
2022-11-12T06:25:18.195Z,47.13
2022-11-12T06:28:22.375Z,56.35
2022-11-12T06:31:26.742Z,54.70
2022-11-12T06:34:31.211Z,51.50
2022-11-12T06:37:35.620Z,53.35
2022-11-12T06:40:40.210Z,50.72
2022-11-12T06:43:44.624Z,50.72
2022-11-12T06:46:48.837Z,51.38
2022-11-12T06:49:53.246Z,56.85
2022-11-12T06:53:00.771Z,55.42
2022-11-12T06:56:07.481Z,54.00
2022-11-12T06:59:12.131Z,54.28
2022-11-12T07:02:16.632Z,58.72
2022-11-12T07:05:20.950Z,50.05
2022-11-12T07:08:25.787Z,54.22
2022-11-12T07:11:31.051Z,56.65
2022-11-12T07:14:35.707Z,54.75
2022-11-12T07:17:39.914Z,50.47
2022-11-12T07:20:44.120Z,60.70
2022-11-12T07:23:48.511Z,51.72
2022-11-12T07:26:53.133Z,46.92
2022-11-12T07:29:57.975Z,60.28
2022-11-12T07:33:02.544Z,50.13
2022-11-12T07:36:10.928Z,47.17
2022-11-12T07:39:15.015Z,53.58
2022-11-12T07:42:19.269Z,48.58
2022-11-12T07:45:23.456Z,47.35
2022-11-12T07:48:30.145Z,48.78
2022-11-12T07:51:34.815Z,51.78
2022-11-12T07:54:39.133Z,48.10
2022-11-12T07:57:43.308Z,46.15
2022-11-12T08:00:47.924Z,49.40
2022-11-12T08:03:52.560Z,48.95
2022-11-12T08:06:57.247Z,43.85
2022-11-12T08:10:01.716Z,45.88
2022-11-12T08:13:05.947Z,52.28
2022-11-12T08:16:10.338Z,39.00
2022-11-12T08:19:14.626Z,41.35
2022-11-12T08:22:19.713Z,40.85
2022-11-12T08:25:24.498Z,46.30
2022-11-12T08:28:30.186Z,39.20
2022-11-12T08:31:34.638Z,34.70
2022-11-12T08:34:41.364Z,37.25
2022-11-12T08:37:45.834Z,36.28
2022-11-12T08:40:50.636Z,37.17
2022-11-12T08:43:55.149Z,34.40
2022-11-12T08:46:59.556Z,38.67
2022-11-12T08:50:03.808Z,40.40
2022-11-12T08:53:13.576Z,37.03
2022-11-12T08:56:17.974Z,38.58
2022-11-12T08:59:22.376Z,35.67
2022-11-12T09:02:26.759Z,38.38
2022-11-12T09:05:31.524Z,34.35
2022-11-12T09:08:38.068Z,33.60
2022-11-12T09:11:42.997Z,34.42
2022-11-12T09:14:47.616Z,31.50
2022-11-12T09:18:01.670Z,35.80
2022-11-12T09:21:12.524Z,32.28
2022-11-12T09:24:17.219Z,35.95
2022-11-12T09:27:21.557Z,36.92
2022-11-12T09:30:25.838Z,40.05
2022-11-12T09:33:33.864Z,32.35
2022-11-12T09:36:39.954Z,32.03
2022-11-12T09:39:44.700Z,33.28
2022-11-12T09:42:53.450Z,29.13
2022-11-12T09:46:35.322Z,33.60
2022-11-12T09:49:50.246Z,34.83
2022-11-12T09:53:16.978Z,34.67
2022-11-12T09:56:23.864Z,32.42
2022-11-12T09:59:35.280Z,36.25
2022-11-12T10:03:04.515Z,31.05
2022-11-12T10:06:19.400Z,26.65
2022-11-12T10:09:38.134Z,33.45
2022-11-12T10:13:24.474Z,31.75
2022-11-12T10:16:43.885Z,35.28
2022-11-12T10:20:28.970Z,26.42
2022-11-12T10:23:49.423Z,31.30
2022-11-12T10:26:56.979Z,30.05
2022-11-12T10:30:13.488Z,33.50
2022-11-12T10:33:18.062Z,28.75
2022-11-12T10:36:33.748Z,23.73
2022-11-12T10:39:41.882Z,25.63
2022-11-12T10:42:58.542Z,24.90
2022-11-12T10:46:24.795Z,20.33
2022-11-12T10:49:29.274Z,26.05
2022-11-12T10:52:33.972Z,30.02
2022-11-12T10:55:59.386Z,27.33
2022-11-12T10:59:25.413Z,26.88
2022-11-12T11:02:29.819Z,28.25
2022-11-12T11:05:48.025Z,35.08
2022-11-12T11:09:07.843Z,25.75
2022-11-12T11:12:31.809Z,22.77
2022-11-12T11:15:36.814Z,25.95
2022-11-12T11:18:47.702Z,23.00
2022-11-12T11:22:19.075Z,31.10
2022-11-12T11:25:28.373Z,24.38
2022-11-12T11:28:53.515Z,23.65
2022-11-12T11:32:00.758Z,26.08
2022-11-12T11:35:44.725Z,23.70
2022-11-12T11:39:26.748Z,23.33
2022-11-12T11:42:50.463Z,25.17
2022-11-12T11:46:32.736Z,24.15
2022-11-12T11:50:33.751Z,27.15
2022-11-12T11:53:53.695Z,24.30
2022-11-12T11:57:02.379Z,25.98
2022-11-12T12:00:21.257Z,27.27
2022-11-12T12:04:07.867Z,20.48
2022-11-12T12:07:36.689Z,33.00
2022-11-12T12:11:21.087Z,27.10
2022-11-12T12:14:55.074Z,29.50
2022-11-12T12:18:54.944Z,25.10
2022-11-12T12:22:01.348Z,29.67
2022-11-12T12:25:30.111Z,23.63
2022-11-12T12:28:55.196Z,28.15
2022-11-12T12:32:23.082Z,27.35
2022-11-12T12:35:40.802Z,29.58
2022-11-12T12:39:47.871Z,27.88
2022-11-12T12:43:27.472Z,22.67
2022-11-12T12:46:41.068Z,25.38
2022-11-12T12:49:48.980Z,20.25
2022-11-12T12:53:21.976Z,21.55
2022-11-12T12:56:31.775Z,23.60
2022-11-12T12:59:37.113Z,24.92
2022-11-12T13:02:42.242Z,21.58
2022-11-12T13:06:05.589Z,20.73
2022-11-12T13:09:15.730Z,24.15
2022-11-12T13:12:19.798Z,22.80
2022-11-12T13:15:44.734Z,23.38
2022-11-12T13:18:51.673Z,31.30
2022-11-12T13:22:17.791Z,23.80
2022-11-12T13:25:22.213Z,25.27
2022-11-12T13:28:26.947Z,24.25
2022-11-12T13:31:34.097Z,28.85
2022-11-12T13:34:38.845Z,27.02
2022-11-12T13:38:01.735Z,28.30
2022-11-12T13:41:42.515Z,25.23
2022-11-12T13:44:53.425Z,25.15
2022-11-12T13:48:00.282Z,27.65
2022-11-12T13:51:38.378Z,23.15
2022-11-12T13:54:43.049Z,23.23
2022-11-12T13:57:57.481Z,24.80
2022-11-12T14:04:13.627Z,21.10
2022-11-12T14:08:01.044Z,19.70
2022-11-12T14:11:26.997Z,25.63
2022-11-12T14:18:09.016Z,23.10
2022-11-12T14:21:18.190Z,22.40
2022-11-12T14:24:23.534Z,24.42
2022-11-12T14:27:33.916Z,23.98
2022-11-12T14:30:44.773Z,28.30
2022-11-12T14:33:49.218Z,29.90
2022-11-12T14:36:57.494Z,24.83
2022-11-12T14:40:02.004Z,23.60
2022-11-12T14:43:06.774Z,26.42
2022-11-12T14:46:39.653Z,25.48
2022-11-12T14:49:49.008Z,28.27
2022-11-12T14:53:07.145Z,26.00
2022-11-12T14:56:48.788Z,32.97
2022-11-12T14:59:53.609Z,27.92
2022-11-12T15:03:01.971Z,26.95
2022-11-12T15:06:06.440Z,27.48
2022-11-12T15:09:10.773Z,29.67
2022-11-12T15:12:30.610Z,32.20
2022-11-12T15:15:49.556Z,27.92
2022-11-12T15:19:24.465Z,28.08
2022-11-12T15:22:34.408Z,24.25
2022-11-12T15:25:38.524Z,25.83
2022-11-12T15:29:02.775Z,30.63
2022-11-12T15:32:13.739Z,29.00
2022-11-12T15:35:30.650Z,24.95
2022-11-12T15:38:37.836Z,27.05
2022-11-12T15:41:42.366Z,24.65
2022-11-12T15:44:47.575Z,25.08
2022-11-12T15:47:52.810Z,29.23
2022-11-12T15:50:56.996Z,27.17
2022-11-12T15:57:05.548Z,27.42
2022-11-12T16:00:18.170Z,24.98
2022-11-12T16:03:23.251Z,28.90
2022-11-12T16:06:27.733Z,27.25
2022-11-12T16:15:41.080Z,24.67
2022-11-12T16:18:45.378Z,28.98
2022-11-12T16:21:49.724Z,28.98
2022-11-12T16:24:53.961Z,23.52
2022-11-12T16:27:59.561Z,28.50
2022-11-12T16:31:03.954Z,24.77
2022-11-12T16:34:08.346Z,27.23
2022-11-12T16:37:14.146Z,26.05
2022-11-12T16:40:25.785Z,26.02
2022-11-12T16:43:30.342Z,29.13
2022-11-12T16:46:40.300Z,26.40
2022-11-12T16:49:44.721Z,32.15
2022-11-12T16:52:49.673Z,25.13
2022-11-12T16:55:56.414Z,28.45
2022-11-12T16:59:00.938Z,27.33
2022-11-12T17:02:13.956Z,36.20
2022-11-12T17:05:27.490Z,24.25
2022-11-12T17:08:34.110Z,29.70
2022-11-12T17:11:38.947Z,25.73
2022-11-12T17:14:43.609Z,22.98
2022-11-12T17:17:48.169Z,23.45
2022-11-12T17:20:52.711Z,23.13
2022-11-12T17:23:58.667Z,23.25
2022-11-12T17:27:03.568Z,26.63
2022-11-12T17:30:08.466Z,25.27
2022-11-12T17:33:12.929Z,27.23
2022-11-12T17:36:21.858Z,25.58
2022-11-12T17:39:27.329Z,29.25
2022-11-12T17:42:31.786Z,23.90
2022-11-12T17:45:36.151Z,25.67
2022-11-12T17:48:41.253Z,57.22
2022-11-12T17:51:45.713Z,38.80
2022-11-12T17:54:49.905Z,28.77
2022-11-12T17:57:54.528Z,31.98
2022-11-12T18:01:19.810Z,48.38
2022-11-12T18:04:26.554Z,58.53
2022-11-12T18:07:33.142Z,142.38
2022-11-12T18:10:38.575Z,70.50
2022-11-12T18:13:43.130Z,61.20
2022-11-12T18:16:48.347Z,45.17
2022-11-12T18:19:52.527Z,27.52
2022-11-12T18:22:56.955Z,32.80
2022-11-12T18:26:01.383Z,34.63
2022-11-12T18:29:07.542Z,184.95
2022-11-12T18:32:13.788Z,147.68
2022-11-12T18:35:18.888Z,136.05
2022-11-12T18:38:23.244Z,83.22
2022-11-12T18:41:30.574Z,160.23
2022-11-12T18:44:36.795Z,156.95
2022-11-12T18:47:41.455Z,131.55
2022-11-12T18:50:46.175Z,78.68
2022-11-12T18:53:55.532Z,32.95
2022-11-12T18:57:01.079Z,24.35
2022-11-12T19:00:06.331Z,67.38
2022-11-12T19:03:10.854Z,26.70
2022-11-12T19:06:16.622Z,23.90
2022-11-12T19:09:21.159Z,28.52
2022-11-12T19:12:25.446Z,31.80
2022-11-12T19:15:34.030Z,23.65
2022-11-12T19:18:40.298Z,25.98
2022-11-12T19:21:44.736Z,45.03
2022-11-12T19:24:49.150Z,26.30
2022-11-12T19:27:53.828Z,27.58
2022-11-12T19:31:02.659Z,30.75
2022-11-12T19:34:06.943Z,30.05
2022-11-12T19:40:35.341Z,28.30
2022-11-12T19:43:41.552Z,26.40
2022-11-12T19:46:45.668Z,30.08
2022-11-12T19:49:50.084Z,26.70
2022-11-12T19:52:54.870Z,23.58
2022-11-12T19:56:04.825Z,28.10
2022-11-12T19:59:10.057Z,29.17
2022-11-12T20:02:15.007Z,27.13
2022-11-12T20:05:19.343Z,23.75
2022-11-12T20:08:26.970Z,29.70
2022-11-12T20:11:31.627Z,27.80
2022-11-12T20:14:36.205Z,26.40
2022-11-12T20:17:40.870Z,19.45
2022-11-12T20:20:57.160Z,23.33
2022-11-12T20:24:01.801Z,21.40
2022-11-12T20:27:07.706Z,22.20
2022-11-12T20:30:12.819Z,20.95
2022-11-12T20:33:17.304Z,19.58
2022-11-12T20:36:23.123Z,19.65
2022-11-12T20:39:27.729Z,21.05
2022-11-12T20:42:32.047Z,21.45
2022-11-12T20:45:36.477Z,18.55
2022-11-12T20:48:43.607Z,23.45
2022-11-12T20:51:49.053Z,23.92
2022-11-12T20:54:53.574Z,23.05
2022-11-12T20:57:57.995Z,24.45
2022-11-12T21:01:04.177Z,22.55
2022-11-12T21:04:12.318Z,28.38
2022-11-12T21:07:16.632Z,23.85
2022-11-12T21:10:21.439Z,21.70
2022-11-12T21:13:27.957Z,24.85
2022-11-12T21:16:32.506Z,22.27
2022-11-12T21:19:37.342Z,22.38
2022-11-12T21:22:41.517Z,27.25
2022-11-12T21:25:46.322Z,23.02
2022-11-12T21:28:53.982Z,26.02
2022-11-12T21:31:58.620Z,24.20
2022-11-12T21:35:03.057Z,23.88
2022-11-12T21:38:07.448Z,26.00
2022-11-12T21:41:19.053Z,24.77
2022-11-12T21:44:24.128Z,24.80
2022-11-12T21:47:29.005Z,24.63
2022-11-12T21:50:33.558Z,26.38
2022-11-12T21:53:40.777Z,26.98
2022-11-12T21:56:46.069Z,26.60
2022-11-12T21:59:50.501Z,25.60
2022-11-12T22:02:58.034Z,18.33
2022-11-12T22:06:04.816Z,22.15
2022-11-12T22:09:09.062Z,29.83
2022-11-12T22:12:13.843Z,25.15
2022-11-12T22:15:24.004Z,24.95
2022-11-12T22:18:29.460Z,25.65
2022-11-12T22:21:40.040Z,27.75
2022-11-12T22:24:44.679Z,24.63
2022-11-12T22:27:49.622Z,24.33
2022-11-12T22:30:55.006Z,23.10
2022-11-12T22:34:02.173Z,22.83
2022-11-12T22:37:06.588Z,22.67
2022-11-12T22:40:13.724Z,26.13
2022-11-12T22:43:18.619Z,23.23
2022-11-12T22:46:26.538Z,23.52
2022-11-12T22:49:31.453Z,21.85
2022-11-12T22:52:36.367Z,23.20
2022-11-12T22:55:41.044Z,25.98
2022-11-12T22:58:47.173Z,29.08
2022-11-12T23:01:51.644Z,23.10
2022-11-12T23:04:56.304Z,22.98
2022-11-12T23:08:00.958Z,24.42
2022-11-12T23:11:09.494Z,25.83
2022-11-12T23:14:13.867Z,22.00
2022-11-12T23:20:22.275Z,20.35
2022-11-12T23:23:26.539Z,23.60
2022-11-12T23:26:31.263Z,22.67
2022-11-12T23:29:35.982Z,26.52
2022-11-12T23:32:40.210Z,23.15
2022-11-12T23:42:05.495Z,24.17
2022-11-12T23:45:10.731Z,27.17
2022-11-12T23:48:14.813Z,23.48
2022-11-12T23:51:21.115Z,23.25
2022-11-12T23:54:25.342Z,21.90
2022-11-12T23:57:30.105Z,26.83
